sensor_id;sensor_type;location;lat;lon;timestamp;P1;durP1;ratioP1;P2;durP2;ratioP2
6586;SDS011;3329;42.686;23.362;2022-08-19T00:01:27;17.10;;;8.53;;
6586;SDS011;3329;42.686;23.362;2022-08-19T00:03:54;19.03;;;8.30;;
6586;SDS011;3329;42.686;23.362;2022-08-19T00:06:21;16.23;;;8.20;;
6586;SDS011;3329;42.686;23.362;2022-08-19T00:08:46;10.47;;;7.07;;
6586;SDS011;3329;42.686;23.362;2022-08-19T00:11:13;8.80;;;6.90;;
6586;SDS011;3329;42.686;23.362;2022-08-19T00:13:38;15.37;;;7.27;;
6586;SDS011;3329;42.686;23.362;2022-08-19T00:16:05;11.53;;;7.03;;
6586;SDS011;3329;42.686;23.362;2022-08-19T00:18:31;8.90;;;6.57;;
6586;SDS011;3329;42.686;23.362;2022-08-19T00:20:57;8.40;;;6.50;;
6586;SDS011;3329;42.686;23.362;2022-08-19T00:23:24;7.37;;;5.83;;
6586;SDS011;3329;42.686;23.362;2022-08-19T00:25:50;10.73;;;6.60;;
6586;SDS011;3329;42.686;23.362;2022-08-19T00:28:17;9.53;;;6.27;;
6586;SDS011;3329;42.686;23.362;2022-08-19T00:30:42;8.50;;;6.47;;
6586;SDS011;3329;42.686;23.362;2022-08-19T00:33:08;14.10;;;6.77;;
6586;SDS011;3329;42.686;23.362;2022-08-19T00:35:33;15.47;;;6.40;;
6586;SDS011;3329;42.686;23.362;2022-08-19T00:37:59;15.73;;;7.20;;
6586;SDS011;3329;42.686;23.362;2022-08-19T00:40:25;13.03;;;7.73;;
6586;SDS011;3329;42.686;23.362;2022-08-19T00:42:51;11.73;;;7.33;;
6586;SDS011;3329;42.686;23.362;2022-08-19T00:45:20;16.17;;;7.67;;
6586;SDS011;3329;42.686;23.362;2022-08-19T00:47:47;8.53;;;6.87;;
6586;SDS011;3329;42.686;23.362;2022-08-19T00:50:13;12.43;;;7.20;;
6586;SDS011;3329;42.686;23.362;2022-08-19T00:52:42;10.23;;;7.07;;
6586;SDS011;3329;42.686;23.362;2022-08-19T00:55:12;10.33;;;6.80;;
6586;SDS011;3329;42.686;23.362;2022-08-19T00:57:41;10.27;;;6.07;;
6586;SDS011;3329;42.686;23.362;2022-08-19T01:00:12;10.53;;;7.10;;
6586;SDS011;3329;42.686;23.362;2022-08-19T01:02:40;10.57;;;6.10;;
6586;SDS011;3329;42.686;23.362;2022-08-19T01:05:12;8.77;;;6.87;;
6586;SDS011;3329;42.686;23.362;2022-08-19T01:07:41;9.37;;;5.97;;
6586;SDS011;3329;42.686;23.362;2022-08-19T01:10:08;7.53;;;5.87;;
6586;SDS011;3329;42.686;23.362;2022-08-19T01:12:37;7.87;;;5.73;;
6586;SDS011;3329;42.686;23.362;2022-08-19T01:15:04;10.20;;;6.20;;
6586;SDS011;3329;42.686;23.362;2022-08-19T01:17:33;11.47;;;6.60;;
6586;SDS011;3329;42.686;23.362;2022-08-19T01:20:01;11.97;;;6.57;;
6586;SDS011;3329;42.686;23.362;2022-08-19T01:25:13;10.73;;;6.63;;
6586;SDS011;3329;42.686;23.362;2022-08-19T01:27:42;8.80;;;6.20;;
6586;SDS011;3329;42.686;23.362;2022-08-19T01:30:18;10.97;;;6.60;;
6586;SDS011;3329;42.686;23.362;2022-08-19T01:32:51;14.17;;;6.30;;
6586;SDS011;3329;42.686;23.362;2022-08-19T01:35:17;8.30;;;5.80;;
6586;SDS011;3329;42.686;23.362;2022-08-19T01:37:46;6.70;;;6.00;;
6586;SDS011;3329;42.686;23.362;2022-08-19T01:40:13;11.67;;;6.00;;
6586;SDS011;3329;42.686;23.362;2022-08-19T01:42:39;8.63;;;6.00;;
6586;SDS011;3329;42.686;23.362;2022-08-19T01:45:06;6.93;;;5.47;;
6586;SDS011;3329;42.686;23.362;2022-08-19T01:47:33;8.27;;;5.90;;
6586;SDS011;3329;42.686;23.362;2022-08-19T01:50:03;9.47;;;6.10;;
6586;SDS011;3329;42.686;23.362;2022-08-19T01:52:29;8.90;;;6.00;;
6586;SDS011;3329;42.686;23.362;2022-08-19T01:54:55;19.73;;;6.90;;
6586;SDS011;3329;42.686;23.362;2022-08-19T01:57:20;10.93;;;6.60;;
6586;SDS011;3329;42.686;23.362;2022-08-19T01:59:46;12.83;;;6.70;;
6586;SDS011;3329;42.686;23.362;2022-08-19T02:02:11;9.77;;;6.27;;
6586;SDS011;3329;42.686;23.362;2022-08-19T02:04:37;9.67;;;6.47;;
6586;SDS011;3329;42.686;23.362;2022-08-19T02:07:03;11.63;;;6.10;;
6586;SDS011;3329;42.686;23.362;2022-08-19T02:09:30;10.13;;;6.43;;
6586;SDS011;3329;42.686;23.362;2022-08-19T02:11:56;13.13;;;6.40;;
6586;SDS011;3329;42.686;23.362;2022-08-19T02:14:22;11.20;;;6.30;;
6586;SDS011;3329;42.686;23.362;2022-08-19T02:16:47;9.13;;;6.37;;
6586;SDS011;3329;42.686;23.362;2022-08-19T02:19:13;8.03;;;6.10;;
6586;SDS011;3329;42.686;23.362;2022-08-19T02:21:38;8.17;;;6.07;;
6586;SDS011;3329;42.686;23.362;2022-08-19T02:24:04;9.17;;;6.00;;
6586;SDS011;3329;42.686;23.362;2022-08-19T02:26:29;9.37;;;5.93;;
6586;SDS011;3329;42.686;23.362;2022-08-19T02:28:56;8.23;;;6.00;;
6586;SDS011;3329;42.686;23.362;2022-08-19T02:31:23;17.87;;;7.27;;
6586;SDS011;3329;42.686;23.362;2022-08-19T02:33:49;10.40;;;6.30;;
6586;SDS011;3329;42.686;23.362;2022-08-19T02:36:16;8.73;;;5.63;;
6586;SDS011;3329;42.686;23.362;2022-08-19T02:38:42;8.43;;;5.70;;
6586;SDS011;3329;42.686;23.362;2022-08-19T02:41:20;9.80;;;5.93;;
6586;SDS011;3329;42.686;23.362;2022-08-19T02:43:47;11.27;;;5.97;;
6586;SDS011;3329;42.686;23.362;2022-08-19T02:48:46;9.90;;;6.13;;
6586;SDS011;3329;42.686;23.362;2022-08-19T02:51:21;11.83;;;6.50;;
6586;SDS011;3329;42.686;23.362;2022-08-19T02:53:50;11.73;;;6.27;;
6586;SDS011;3329;42.686;23.362;2022-08-19T02:56:16;11.63;;;6.87;;
6586;SDS011;3329;42.686;23.362;2022-08-19T02:58:42;8.60;;;5.80;;
6586;SDS011;3329;42.686;23.362;2022-08-19T03:01:08;16.17;;;7.10;;
6586;SDS011;3329;42.686;23.362;2022-08-19T03:03:35;16.37;;;7.20;;
6586;SDS011;3329;42.686;23.362;2022-08-19T03:06:05;10.37;;;6.10;;
6586;SDS011;3329;42.686;23.362;2022-08-19T03:08:32;10.23;;;6.03;;
6586;SDS011;3329;42.686;23.362;2022-08-19T03:10:58;11.50;;;6.30;;
6586;SDS011;3329;42.686;23.362;2022-08-19T03:13:24;12.93;;;6.30;;
6586;SDS011;3329;42.686;23.362;2022-08-19T03:15:49;12.73;;;6.57;;
6586;SDS011;3329;42.686;23.362;2022-08-19T03:18:15;10.50;;;6.87;;
6586;SDS011;3329;42.686;23.362;2022-08-19T03:20:42;10.73;;;6.23;;
6586;SDS011;3329;42.686;23.362;2022-08-19T03:23:14;16.30;;;7.17;;
6586;SDS011;3329;42.686;23.362;2022-08-19T03:25:41;8.60;;;5.77;;
6586;SDS011;3329;42.686;23.362;2022-08-19T03:28:10;9.80;;;6.10;;
6586;SDS011;3329;42.686;23.362;2022-08-19T03:30:37;10.33;;;6.07;;
6586;SDS011;3329;42.686;23.362;2022-08-19T03:33:04;10.53;;;6.77;;
6586;SDS011;3329;42.686;23.362;2022-08-19T03:35:30;9.93;;;6.50;;
6586;SDS011;3329;42.686;23.362;2022-08-19T03:37:57;15.47;;;6.87;;
6586;SDS011;3329;42.686;23.362;2022-08-19T03:40:24;8.67;;;6.47;;
6586;SDS011;3329;42.686;23.362;2022-08-19T03:42:50;8.47;;;6.20;;
6586;SDS011;3329;42.686;23.362;2022-08-19T03:45:15;9.77;;;6.60;;
6586;SDS011;3329;42.686;23.362;2022-08-19T03:47:41;7.93;;;6.53;;
6586;SDS011;3329;42.686;23.362;2022-08-19T03:50:06;12.00;;;6.63;;
6586;SDS011;3329;42.686;23.362;2022-08-19T03:52:33;10.33;;;6.57;;
6586;SDS011;3329;42.686;23.362;2022-08-19T03:54:59;14.93;;;6.87;;
6586;SDS011;3329;42.686;23.362;2022-08-19T03:57:24;11.13;;;6.87;;
6586;SDS011;3329;42.686;23.362;2022-08-19T03:59:50;13.63;;;6.57;;
6586;SDS011;3329;42.686;23.362;2022-08-19T04:02:15;11.53;;;7.03;;
6586;SDS011;3329;42.686;23.362;2022-08-19T04:04:41;19.03;;;7.30;;
6586;SDS011;3329;42.686;23.362;2022-08-19T04:07:08;14.50;;;6.97;;
6586;SDS011;3329;42.686;23.362;2022-08-19T04:09:35;13.87;;;6.97;;
6586;SDS011;3329;42.686;23.362;2022-08-19T04:12:02;9.87;;;7.37;;
6586;SDS011;3329;42.686;23.362;2022-08-19T04:14:31;12.23;;;6.80;;
6586;SDS011;3329;42.686;23.362;2022-08-19T04:16:57;13.83;;;7.03;;
6586;SDS011;3329;42.686;23.362;2022-08-19T04:19:24;18.93;;;7.87;;
6586;SDS011;3329;42.686;23.362;2022-08-19T04:21:52;16.07;;;6.83;;
6586;SDS011;3329;42.686;23.362;2022-08-19T04:24:19;10.13;;;6.80;;
6586;SDS011;3329;42.686;23.362;2022-08-19T04:26:46;15.40;;;7.63;;
6586;SDS011;3329;42.686;23.362;2022-08-19T04:29:13;10.07;;;6.67;;
6586;SDS011;3329;42.686;23.362;2022-08-19T04:31:41;12.40;;;6.43;;
6586;SDS011;3329;42.686;23.362;2022-08-19T04:34:10;10.70;;;7.17;;
6586;SDS011;3329;42.686;23.362;2022-08-19T04:36:38;15.57;;;7.53;;
6586;SDS011;3329;42.686;23.362;2022-08-19T04:39:10;14.97;;;8.77;;
6586;SDS011;3329;42.686;23.362;2022-08-19T04:41:38;15.90;;;8.27;;
6586;SDS011;3329;42.686;23.362;2022-08-19T04:44:22;22.93;;;10.77;;
6586;SDS011;3329;42.686;23.362;2022-08-19T04:46:48;20.93;;;10.97;;
6586;SDS011;3329;42.686;23.362;2022-08-19T04:49:15;22.33;;;11.47;;
6586;SDS011;3329;42.686;23.362;2022-08-19T04:51:43;27.27;;;11.50;;
6586;SDS011;3329;42.686;23.362;2022-08-19T04:54:10;19.23;;;10.80;;
6586;SDS011;3329;42.686;23.362;2022-08-19T04:56:36;18.77;;;10.60;;
6586;SDS011;3329;42.686;23.362;2022-08-19T04:59:03;18.17;;;10.07;;
6586;SDS011;3329;42.686;23.362;2022-08-19T05:01:29;22.97;;;10.40;;
6586;SDS011;3329;42.686;23.362;2022-08-19T05:03:57;18.43;;;10.73;;
6586;SDS011;3329;42.686;23.362;2022-08-19T05:06:23;21.83;;;10.33;;
6586;SDS011;3329;42.686;23.362;2022-08-19T05:08:50;18.83;;;9.70;;
6586;SDS011;3329;42.686;23.362;2022-08-19T05:11:17;15.60;;;9.03;;
6586;SDS011;3329;42.686;23.362;2022-08-19T05:13:46;27.60;;;16.60;;
6586;SDS011;3329;42.686;23.362;2022-08-19T05:16:13;20.00;;;9.40;;
6586;SDS011;3329;42.686;23.362;2022-08-19T05:18:40;16.93;;;8.97;;
6586;SDS011;3329;42.686;23.362;2022-08-19T05:21:25;15.77;;;8.47;;
6586;SDS011;3329;42.686;23.362;2022-08-19T05:24:10;19.47;;;8.57;;
6586;SDS011;3329;42.686;23.362;2022-08-19T05:26:39;17.37;;;8.97;;
6586;SDS011;3329;42.686;23.362;2022-08-19T05:29:06;15.00;;;8.50;;
6586;SDS011;3329;42.686;23.362;2022-08-19T05:31:34;19.80;;;8.47;;
6586;SDS011;3329;42.686;23.362;2022-08-19T05:34:01;16.27;;;8.70;;
6586;SDS011;3329;42.686;23.362;2022-08-19T05:36:29;15.10;;;8.33;;
6586;SDS011;3329;42.686;23.362;2022-08-19T05:38:59;11.47;;;7.47;;
6586;SDS011;3329;42.686;23.362;2022-08-19T05:41:25;13.80;;;7.87;;
6586;SDS011;3329;42.686;23.362;2022-08-19T05:43:57;13.50;;;8.20;;
6586;SDS011;3329;42.686;23.362;2022-08-19T05:46:24;13.97;;;8.13;;
6586;SDS011;3329;42.686;23.362;2022-08-19T05:48:49;10.93;;;6.83;;
6586;SDS011;3329;42.686;23.362;2022-08-19T05:51:15;14.10;;;8.07;;
6586;SDS011;3329;42.686;23.362;2022-08-19T05:53:41;15.33;;;9.63;;
6586;SDS011;3329;42.686;23.362;2022-08-19T05:56:08;17.47;;;8.70;;
6586;SDS011;3329;42.686;23.362;2022-08-19T05:58:36;14.70;;;8.67;;
6586;SDS011;3329;42.686;23.362;2022-08-19T06:01:03;13.77;;;8.53;;
6586;SDS011;3329;42.686;23.362;2022-08-19T06:03:31;20.90;;;8.40;;
6586;SDS011;3329;42.686;23.362;2022-08-19T06:05:58;13.57;;;8.30;;
6586;SDS011;3329;42.686;23.362;2022-08-19T06:08:27;19.73;;;8.73;;
6586;SDS011;3329;42.686;23.362;2022-08-19T06:10:54;13.87;;;7.40;;
6586;SDS011;3329;42.686;23.362;2022-08-19T06:13:20;16.50;;;8.47;;
6586;SDS011;3329;42.686;23.362;2022-08-19T06:15:46;14.10;;;7.97;;
6586;SDS011;3329;42.686;23.362;2022-08-19T06:18:12;17.43;;;7.80;;
6586;SDS011;3329;42.686;23.362;2022-08-19T06:20:39;18.30;;;7.97;;
6586;SDS011;3329;42.686;23.362;2022-08-19T06:23:04;18.33;;;7.67;;
6586;SDS011;3329;42.686;23.362;2022-08-19T06:25:30;12.97;;;7.57;;
6586;SDS011;3329;42.686;23.362;2022-08-19T06:27:56;12.03;;;6.97;;
6586;SDS011;3329;42.686;23.362;2022-08-19T06:30:21;13.17;;;7.33;;
6586;SDS011;3329;42.686;23.362;2022-08-19T06:32:46;16.10;;;7.43;;
6586;SDS011;3329;42.686;23.362;2022-08-19T06:35:12;13.63;;;7.50;;
6586;SDS011;3329;42.686;23.362;2022-08-19T06:37:39;12.30;;;6.67;;
6586;SDS011;3329;42.686;23.362;2022-08-19T06:40:05;19.40;;;7.50;;
6586;SDS011;3329;42.686;23.362;2022-08-19T06:42:33;8.63;;;6.30;;
6586;SDS011;3329;42.686;23.362;2022-08-19T06:44:59;12.07;;;6.10;;
6586;SDS011;3329;42.686;23.362;2022-08-19T06:47:29;11.77;;;7.30;;
6586;SDS011;3329;42.686;23.362;2022-08-19T06:49:56;12.43;;;7.27;;
6586;SDS011;3329;42.686;23.362;2022-08-19T06:52:27;14.90;;;6.73;;
6586;SDS011;3329;42.686;23.362;2022-08-19T06:54:58;10.23;;;7.10;;
6586;SDS011;3329;42.686;23.362;2022-08-19T06:57:25;17.03;;;7.67;;
6586;SDS011;3329;42.686;23.362;2022-08-19T06:59:51;12.97;;;6.47;;
6586;SDS011;3329;42.686;23.362;2022-08-19T07:02:17;14.93;;;7.50;;
6586;SDS011;3329;42.686;23.362;2022-08-19T07:04:44;15.60;;;7.27;;
6586;SDS011;3329;42.686;23.362;2022-08-19T07:07:11;11.10;;;7.33;;
6586;SDS011;3329;42.686;23.362;2022-08-19T07:09:42;21.83;;;15.10;;
6586;SDS011;3329;42.686;23.362;2022-08-19T07:12:09;22.73;;;12.43;;
6586;SDS011;3329;42.686;23.362;2022-08-19T07:14:36;13.93;;;8.20;;
6586;SDS011;3329;42.686;23.362;2022-08-19T07:17:04;9.87;;;7.40;;
6586;SDS011;3329;42.686;23.362;2022-08-19T07:19:31;12.57;;;7.10;;
6586;SDS011;3329;42.686;23.362;2022-08-19T07:21:57;19.17;;;9.93;;
6586;SDS011;3329;42.686;23.362;2022-08-19T07:24:26;17.00;;;8.10;;
6586;SDS011;3329;42.686;23.362;2022-08-19T07:26:53;10.07;;;6.80;;
6586;SDS011;3329;42.686;23.362;2022-08-19T07:29:20;13.17;;;6.73;;
6586;SDS011;3329;42.686;23.362;2022-08-19T07:31:50;12.00;;;6.87;;
6586;SDS011;3329;42.686;23.362;2022-08-19T07:34:17;11.53;;;7.27;;
6586;SDS011;3329;42.686;23.362;2022-08-19T07:36:43;11.20;;;7.07;;
6586;SDS011;3329;42.686;23.362;2022-08-19T07:39:11;16.67;;;7.30;;
6586;SDS011;3329;42.686;23.362;2022-08-19T07:41:39;11.47;;;7.60;;
6586;SDS011;3329;42.686;23.362;2022-08-19T07:44:05;15.30;;;6.90;;
6586;SDS011;3329;42.686;23.362;2022-08-19T07:46:36;13.13;;;7.50;;
6586;SDS011;3329;42.686;23.362;2022-08-19T07:49:05;10.30;;;6.60;;
6586;SDS011;3329;42.686;23.362;2022-08-19T07:54:33;42.33;;;26.80;;
6586;SDS011;3329;42.686;23.362;2022-08-19T07:57:00;13.63;;;8.27;;
6586;SDS011;3329;42.686;23.362;2022-08-19T07:59:26;12.33;;;7.17;;
6586;SDS011;3329;42.686;23.362;2022-08-19T08:01:53;10.80;;;7.13;;
6586;SDS011;3329;42.686;23.362;2022-08-19T08:07:35;13.27;;;7.17;;
6586;SDS011;3329;42.686;23.362;2022-08-19T08:10:25;17.00;;;7.83;;
6586;SDS011;3329;42.686;23.362;2022-08-19T08:12:58;23.77;;;8.40;;
6586;SDS011;3329;42.686;23.362;2022-08-19T08:15:40;13.53;;;8.40;;
6586;SDS011;3329;42.686;23.362;2022-08-19T08:18:05;13.73;;;8.37;;
6586;SDS011;3329;42.686;23.362;2022-08-19T08:23:37;15.67;;;8.53;;
6586;SDS011;3329;42.686;23.362;2022-08-19T08:26:03;12.23;;;7.47;;
6586;SDS011;3329;42.686;23.362;2022-08-19T08:28:35;15.37;;;6.87;;
6586;SDS011;3329;42.686;23.362;2022-08-19T08:31:11;11.73;;;6.67;;
6586;SDS011;3329;42.686;23.362;2022-08-19T08:38:58;12.20;;;8.77;;
6586;SDS011;3329;42.686;23.362;2022-08-19T08:44:22;18.17;;;10.50;;
6586;SDS011;3329;42.686;23.362;2022-08-19T08:47:09;16.87;;;7.60;;
6586;SDS011;3329;42.686;23.362;2022-08-19T08:52:56;29.63;;;20.47;;
6586;SDS011;3329;42.686;23.362;2022-08-19T09:01:37;9.13;;;6.20;;
6586;SDS011;3329;42.686;23.362;2022-08-19T09:04:07;15.88;;;7.28;;
6586;SDS011;3329;42.686;23.362;2022-08-19T09:06:53;13.68;;;7.13;;
6586;SDS011;3329;42.686;23.362;2022-08-19T09:09:35;11.43;;;5.93;;
6586;SDS011;3329;42.686;23.362;2022-08-19T09:15:04;9.15;;;5.93;;
6586;SDS011;3329;42.686;23.362;2022-08-19T09:20:42;7.68;;;4.80;;
6586;SDS011;3329;42.686;23.362;2022-08-19T09:23:16;25.95;;;9.50;;
6586;SDS011;3329;42.686;23.362;2022-08-19T09:25:53;16.95;;;7.25;;
6586;SDS011;3329;42.686;23.362;2022-08-19T09:28:18;8.05;;;5.47;;
6586;SDS011;3329;42.686;23.362;2022-08-19T09:30:44;6.40;;;4.80;;
6586;SDS011;3329;42.686;23.362;2022-08-19T09:33:09;7.65;;;4.65;;
6586;SDS011;3329;42.686;23.362;2022-08-19T09:35:45;7.70;;;5.70;;
6586;SDS011;3329;42.686;23.362;2022-08-19T09:41:08;7.75;;;4.32;;
6586;SDS011;3329;42.686;23.362;2022-08-19T09:51:11;6.47;;;4.00;;
6586;SDS011;3329;42.686;23.362;2022-08-19T09:53:49;6.40;;;3.97;;
6586;SDS011;3329;42.686;23.362;2022-08-19T09:56:16;6.47;;;4.30;;
6586;SDS011;3329;42.686;23.362;2022-08-19T09:58:43;8.02;;;4.22;;
6586;SDS011;3329;42.686;23.362;2022-08-19T10:01:14;6.82;;;4.38;;
6586;SDS011;3329;42.686;23.362;2022-08-19T10:03:46;6.93;;;3.85;;
6586;SDS011;3329;42.686;23.362;2022-08-19T10:06:14;5.35;;;3.83;;
6586;SDS011;3329;42.686;23.362;2022-08-19T10:08:40;6.32;;;5.10;;
6586;SDS011;3329;42.686;23.362;2022-08-19T10:11:06;7.68;;;3.85;;
6586;SDS011;3329;42.686;23.362;2022-08-19T10:13:32;6.38;;;3.78;;
6586;SDS011;3329;42.686;23.362;2022-08-19T10:16:12;5.10;;;4.07;;
6586;SDS011;3329;42.686;23.362;2022-08-19T10:18:40;6.95;;;4.00;;
6586;SDS011;3329;42.686;23.362;2022-08-19T10:21:12;4.90;;;4.10;;
6586;SDS011;3329;42.686;23.362;2022-08-19T10:23:41;9.35;;;4.72;;
6586;SDS011;3329;42.686;23.362;2022-08-19T10:26:10;7.85;;;5.95;;
6586;SDS011;3329;42.686;23.362;2022-08-19T10:28:36;5.25;;;4.30;;
6586;SDS011;3329;42.686;23.362;2022-08-19T10:31:03;10.15;;;4.32;;
6586;SDS011;3329;42.686;23.362;2022-08-19T10:33:32;8.50;;;4.82;;
6586;SDS011;3329;42.686;23.362;2022-08-19T10:35:59;4.72;;;4.10;;
6586;SDS011;3329;42.686;23.362;2022-08-19T10:38:33;5.55;;;4.40;;
6586;SDS011;3329;42.686;23.362;2022-08-19T10:41:10;6.43;;;4.43;;
6586;SDS011;3329;42.686;23.362;2022-08-19T10:43:37;4.65;;;4.07;;
6586;SDS011;3329;42.686;23.362;2022-08-19T10:46:03;19.30;;;14.57;;
6586;SDS011;3329;42.686;23.362;2022-08-19T10:48:31;7.97;;;4.32;;
6586;SDS011;3329;42.686;23.362;2022-08-19T10:50:58;9.90;;;6.57;;
6586;SDS011;3329;42.686;23.362;2022-08-19T10:53:42;8.15;;;4.35;;
6586;SDS011;3329;42.686;23.362;2022-08-19T10:56:07;8.50;;;4.13;;
6586;SDS011;3329;42.686;23.362;2022-08-19T10:58:51;10.02;;;4.22;;
6586;SDS011;3329;42.686;23.362;2022-08-19T11:01:17;8.70;;;4.70;;
6586;SDS011;3329;42.686;23.362;2022-08-19T11:03:43;17.95;;;10.75;;
6586;SDS011;3329;42.686;23.362;2022-08-19T11:06:10;7.13;;;4.35;;
6586;SDS011;3329;42.686;23.362;2022-08-19T11:08:36;5.93;;;4.55;;
6586;SDS011;3329;42.686;23.362;2022-08-19T11:11:05;5.43;;;4.78;;
6586;SDS011;3329;42.686;23.362;2022-08-19T11:13:33;4.82;;;4.32;;
6586;SDS011;3329;42.686;23.362;2022-08-19T11:16:12;6.38;;;4.78;;
6586;SDS011;3329;42.686;23.362;2022-08-19T11:18:41;8.32;;;4.30;;
6586;SDS011;3329;42.686;23.362;2022-08-19T11:21:10;8.75;;;4.00;;
6586;SDS011;3329;42.686;23.362;2022-08-19T11:23:38;7.78;;;4.50;;
6586;SDS011;3329;42.686;23.362;2022-08-19T11:26:04;5.90;;;4.25;;
6586;SDS011;3329;42.686;23.362;2022-08-19T11:28:30;6.22;;;4.68;;
6586;SDS011;3329;42.686;23.362;2022-08-19T11:30:56;10.20;;;4.65;;
6586;SDS011;3329;42.686;23.362;2022-08-19T11:33:21;5.38;;;4.35;;
6586;SDS011;3329;42.686;23.362;2022-08-19T11:35:47;5.38;;;3.97;;
6586;SDS011;3329;42.686;23.362;2022-08-19T11:38:14;6.97;;;4.75;;
6586;SDS011;3329;42.686;23.362;2022-08-19T11:40:40;11.15;;;8.18;;
6586;SDS011;3329;42.686;23.362;2022-08-19T11:43:07;24.55;;;17.85;;
6586;SDS011;3329;42.686;23.362;2022-08-19T11:45:33;16.45;;;11.02;;
6586;SDS011;3329;42.686;23.362;2022-08-19T11:47:59;12.18;;;7.10;;
6586;SDS011;3329;42.686;23.362;2022-08-19T11:50:24;10.98;;;7.05;;
6586;SDS011;3329;42.686;23.362;2022-08-19T11:52:51;7.30;;;5.07;;
6586;SDS011;3329;42.686;23.362;2022-08-19T11:55:19;11.35;;;4.88;;
6586;SDS011;3329;42.686;23.362;2022-08-19T11:57:45;10.05;;;5.07;;
6586;SDS011;3329;42.686;23.362;2022-08-19T12:00:11;11.15;;;5.53;;
6586;SDS011;3329;42.686;23.362;2022-08-19T12:02:38;21.05;;;11.98;;
6586;SDS011;3329;42.686;23.362;2022-08-19T12:05:04;28.80;;;20.25;;
6586;SDS011;3329;42.686;23.362;2022-08-19T12:07:32;7.55;;;5.40;;
6586;SDS011;3329;42.686;23.362;2022-08-19T12:09:59;6.13;;;4.55;;
6586;SDS011;3329;42.686;23.362;2022-08-19T12:12:25;6.68;;;4.55;;
6586;SDS011;3329;42.686;23.362;2022-08-19T12:14:52;6.35;;;5.43;;
6586;SDS011;3329;42.686;23.362;2022-08-19T12:17:27;10.68;;;6.03;;
6586;SDS011;3329;42.686;23.362;2022-08-19T12:19:53;9.20;;;6.05;;
6586;SDS011;3329;42.686;23.362;2022-08-19T12:22:19;9.77;;;5.60;;
6586;SDS011;3329;42.686;23.362;2022-08-19T12:24:49;9.38;;;5.35;;
6586;SDS011;3329;42.686;23.362;2022-08-19T12:27:17;7.85;;;5.80;;
6586;SDS011;3329;42.686;23.362;2022-08-19T12:29:43;9.23;;;4.78;;
6586;SDS011;3329;42.686;23.362;2022-08-19T12:32:08;5.03;;;4.45;;
6586;SDS011;3329;42.686;23.362;2022-08-19T12:34:34;13.90;;;5.35;;
6586;SDS011;3329;42.686;23.362;2022-08-19T12:37:02;11.48;;;4.47;;
6586;SDS011;3329;42.686;23.362;2022-08-19T12:39:29;7.25;;;5.07;;
6586;SDS011;3329;42.686;23.362;2022-08-19T12:41:58;5.78;;;4.55;;
6586;SDS011;3329;42.686;23.362;2022-08-19T12:44:23;6.10;;;4.55;;
6586;SDS011;3329;42.686;23.362;2022-08-19T12:46:49;6.60;;;5.13;;
6586;SDS011;3329;42.686;23.362;2022-08-19T12:49:14;16.02;;;5.07;;
6586;SDS011;3329;42.686;23.362;2022-08-19T12:51:41;12.93;;;4.82;;
6586;SDS011;3329;42.686;23.362;2022-08-19T12:54:06;13.05;;;5.25;;
6586;SDS011;3329;42.686;23.362;2022-08-19T12:56:32;6.13;;;4.65;;
6586;SDS011;3329;42.686;23.362;2022-08-19T12:59:00;8.00;;;4.45;;
6586;SDS011;3329;42.686;23.362;2022-08-19T13:01:27;11.18;;;5.10;;
6586;SDS011;3329;42.686;23.362;2022-08-19T13:03:57;7.95;;;5.20;;
6586;SDS011;3329;42.686;23.362;2022-08-19T13:06:23;14.55;;;5.15;;
6586;SDS011;3329;42.686;23.362;2022-08-19T13:08:48;7.97;;;5.53;;
6586;SDS011;3329;42.686;23.362;2022-08-19T13:11:15;8.20;;;5.38;;
6586;SDS011;3329;42.686;23.362;2022-08-19T13:13:43;13.20;;;5.55;;
6586;SDS011;3329;42.686;23.362;2022-08-19T13:16:10;8.18;;;5.22;;
6586;SDS011;3329;42.686;23.362;2022-08-19T13:18:38;9.80;;;5.50;;
6586;SDS011;3329;42.686;23.362;2022-08-19T13:21:06;6.22;;;5.47;;
6586;SDS011;3329;42.686;23.362;2022-08-19T13:23:33;15.90;;;5.35;;
6586;SDS011;3329;42.686;23.362;2022-08-19T13:26:00;6.55;;;5.18;;
6586;SDS011;3329;42.686;23.362;2022-08-19T13:28:28;6.10;;;4.80;;
6586;SDS011;3329;42.686;23.362;2022-08-19T13:31:15;13.48;;;5.03;;
6586;SDS011;3329;42.686;23.362;2022-08-19T13:33:59;8.45;;;5.50;;
6586;SDS011;3329;42.686;23.362;2022-08-19T13:36:25;8.27;;;5.32;;
6586;SDS011;3329;42.686;23.362;2022-08-19T13:38:51;10.13;;;5.40;;
6586;SDS011;3329;42.686;23.362;2022-08-19T13:41:16;9.70;;;5.07;;
6586;SDS011;3329;42.686;23.362;2022-08-19T13:43:43;8.80;;;5.00;;
6586;SDS011;3329;42.686;23.362;2022-08-19T13:46:09;6.32;;;4.97;;
6586;SDS011;3329;42.686;23.362;2022-08-19T13:48:39;7.68;;;5.18;;
6586;SDS011;3329;42.686;23.362;2022-08-19T13:51:05;9.30;;;4.72;;
6586;SDS011;3329;42.686;23.362;2022-08-19T13:53:34;12.25;;;5.28;;
6586;SDS011;3329;42.686;23.362;2022-08-19T13:56:04;8.57;;;5.32;;
6586;SDS011;3329;42.686;23.362;2022-08-19T13:58:31;6.85;;;4.90;;
6586;SDS011;3329;42.686;23.362;2022-08-19T14:00:57;11.15;;;5.13;;
6586;SDS011;3329;42.686;23.362;2022-08-19T14:03:24;6.80;;;5.40;;
6586;SDS011;3329;42.686;23.362;2022-08-19T14:05:50;5.20;;;4.60;;
6586;SDS011;3329;42.686;23.362;2022-08-19T14:08:15;9.55;;;5.32;;
6586;SDS011;3329;42.686;23.362;2022-08-19T14:10:42;6.93;;;5.22;;
6586;SDS011;3329;42.686;23.362;2022-08-19T14:13:09;10.27;;;5.00;;
6586;SDS011;3329;42.686;23.362;2022-08-19T14:15:35;6.82;;;5.07;;
6586;SDS011;3329;42.686;23.362;2022-08-19T14:18:02;12.38;;;5.22;;
6586;SDS011;3329;42.686;23.362;2022-08-19T14:20:27;6.72;;;4.80;;
6586;SDS011;3329;42.686;23.362;2022-08-19T14:22:53;37.30;;;27.38;;
6586;SDS011;3329;42.686;23.362;2022-08-19T14:25:23;17.13;;;11.02;;
6586;SDS011;3329;42.686;23.362;2022-08-19T14:27:51;25.48;;;15.30;;
6586;SDS011;3329;42.686;23.362;2022-08-19T14:30:21;18.90;;;9.32;;
6586;SDS011;3329;42.686;23.362;2022-08-19T14:32:50;10.60;;;6.60;;
6586;SDS011;3329;42.686;23.362;2022-08-19T14:35:16;11.45;;;5.93;;
6586;SDS011;3329;42.686;23.362;2022-08-19T14:37:43;8.30;;;5.22;;
6586;SDS011;3329;42.686;23.362;2022-08-19T14:40:10;10.27;;;5.05;;
6586;SDS011;3329;42.686;23.362;2022-08-19T14:42:36;9.82;;;4.85;;
6586;SDS011;3329;42.686;23.362;2022-08-19T14:45:02;6.20;;;4.90;;
6586;SDS011;3329;42.686;23.362;2022-08-19T14:47:30;9.48;;;5.20;;
6586;SDS011;3329;42.686;23.362;2022-08-19T14:49:55;27.33;;;17.73;;
6586;SDS011;3329;42.686;23.362;2022-08-19T14:52:21;20.25;;;14.00;;
6586;SDS011;3329;42.686;23.362;2022-08-19T14:54:46;12.40;;;6.10;;
6586;SDS011;3329;42.686;23.362;2022-08-19T14:57:13;17.77;;;12.50;;
6586;SDS011;3329;42.686;23.362;2022-08-19T14:59:40;10.27;;;7.57;;
6586;SDS011;3329;42.686;23.362;2022-08-19T15:02:05;14.60;;;9.40;;
6586;SDS011;3329;42.686;23.362;2022-08-19T15:04:31;47.92;;;24.88;;
6586;SDS011;3329;42.686;23.362;2022-08-19T15:06:57;44.00;;;28.80;;
6586;SDS011;3329;42.686;23.362;2022-08-19T15:09:23;30.52;;;22.98;;
6586;SDS011;3329;42.686;23.362;2022-08-19T15:11:48;49.17;;;31.85;;
6586;SDS011;3329;42.686;23.362;2022-08-19T15:14:14;20.48;;;13.52;;
6586;SDS011;3329;42.686;23.362;2022-08-19T15:16:41;14.98;;;9.15;;
6586;SDS011;3329;42.686;23.362;2022-08-19T15:19:07;26.42;;;17.48;;
6586;SDS011;3329;42.686;23.362;2022-08-19T15:21:33;41.30;;;27.17;;
6586;SDS011;3329;42.686;23.362;2022-08-19T15:23:59;26.63;;;18.95;;
6586;SDS011;3329;42.686;23.362;2022-08-19T15:26:26;119.50;;;79.03;;
6586;SDS011;3329;42.686;23.362;2022-08-19T15:28:56;84.97;;;53.30;;
6586;SDS011;3329;42.686;23.362;2022-08-19T15:31:22;35.35;;;20.73;;
6586;SDS011;3329;42.686;23.362;2022-08-19T15:33:47;30.95;;;17.80;;
6586;SDS011;3329;42.686;23.362;2022-08-19T15:36:14;11.27;;;6.30;;
6586;SDS011;3329;42.686;23.362;2022-08-19T15:38:40;11.25;;;6.10;;
6586;SDS011;3329;42.686;23.362;2022-08-19T15:41:14;15.73;;;5.75;;
6586;SDS011;3329;42.686;23.362;2022-08-19T15:43:52;13.02;;;5.63;;